Time;durP1;ratioP1;P1;durP2;ratioP2;P2;SDS_P1;SDS_P2;PMS_P1;PMS_P2;Temp;Humidity;BMP_temperature;BMP_pressure;BME280_temperature;BME280_humidity;BME280_pressure;Samples;Min_cycle;Max_cycle;Signal;HPM_P1;HPM_P2
2022/08/01 00:00:08;;;;;;;6.93;5.17;;;15.40;99.90;;;;;;4959385;28;20206;-75
2022/08/01 00:02:39;;;;;;;7.80;5.17;;;15.40;99.90;;;;;;4976419;28;20178;-81
2022/08/01 00:05:08;;;;;;;7.43;5.57;;;15.40;99.90;;;;;;4976585;28;20601;-76
2022/08/01 00:07:35;;;;;;;8.23;5.23;;;15.30;99.90;;;;;;4959211;28;20212;-77
2022/08/01 00:10:08;;;;;;;8.13;5.47;;;15.30;99.90;;;;;;4958997;28;20666;-78
2022/08/01 00:12:36;;;;;;;7.83;5.47;;;15.30;99.90;;;;;;4976382;28;20205;-77
2022/08/01 00:15:05;;;;;;;8.13;5.20;;;15.40;99.90;;;;;;4976364;28;20643;-78
2022/08/01 00:17:32;;;;;;;10.13;5.60;;;15.30;99.90;;;;;;4959056;28;20206;-77
2022/08/01 00:19:59;;;;;;;6.23;5.00;;;15.30;99.90;;;;;;4959084;28;20239;-78
2022/08/01 00:22:26;;;;;;;8.57;4.83;;;15.20;99.90;;;;;;4958778;28;20647;-77
2022/08/01 00:24:53;;;;;;;7.93;5.07;;;15.20;99.90;;;;;;4959096;28;20304;-76
2022/08/01 00:27:20;;;;;;;6.73;5.03;;;15.20;99.90;;;;;;4959160;28;20204;-77
2022/08/01 00:29:47;;;;;;;6.67;4.77;;;15.20;99.90;;;;;;4959110;28;20534;-76
2022/08/01 00:32:34;;;;;;;8.27;4.67;;;15.20;99.90;;;;;;4958573;28;20642;-76
2022/08/01 00:35:01;;;;;;;12.03;5.87;;;15.30;99.90;;;;;;4959047;28;20658;-75
2022/08/01 00:37:28;;;;;;;6.87;4.47;;;15.40;99.90;;;;;;4958803;28;20209;-75
2022/08/01 00:39:55;;;;;;;5.37;4.47;;;15.30;99.90;;;;;;4958859;28;20617;-76
2022/08/01 00:42:22;;;;;;;6.20;4.80;;;15.40;99.90;;;;;;4958515;28;20288;-76
2022/08/01 00:44:48;;;;;;;8.13;4.40;;;15.40;99.90;;;;;;4958532;28;20219;-77
2022/08/01 00:47:15;;;;;;;9.50;4.70;;;15.30;99.90;;;;;;4976190;28;20690;-76
2022/08/01 00:49:42;;;;;;;5.47;4.43;;;15.30;99.90;;;;;;4975999;28;20190;-75
2022/08/01 00:52:10;;;;;;;6.77;4.40;;;15.30;99.90;;;;;;4958690;28;20193;-76
2022/08/01 00:54:37;;;;;;;6.77;4.40;;;15.40;99.90;;;;;;4975772;28;20710;-76
2022/08/01 00:57:04;;;;;;;5.83;4.30;;;15.30;99.90;;;;;;4958424;28;20581;-77
2022/08/01 00:59:36;;;;;;;9.63;4.93;;;15.40;99.90;;;;;;4958096;28;20193;-82
2022/08/01 01:02:06;;;;;;;7.93;4.40;;;15.40;99.90;;;;;;4975556;28;20248;-75
2022/08/01 01:04:42;;;;;;;9.50;5.30;;;15.30;99.90;;;;;;4975469;28;20209;-77
2022/08/01 01:07:31;;;;;;;10.23;4.60;;;15.30;99.90;;;;;;4958199;28;20193;-76
2022/08/01 01:10:19;;;;;;;7.77;4.63;;;15.40;99.90;;;;;;4957726;28;20229;-78
2022/08/01 01:13:06;;;;;;;6.33;5.13;;;15.30;99.90;;;;;;4975405;28;20268;-76
2022/08/01 01:15:41;;;;;;;6.77;5.20;;;15.20;99.90;;;;;;4975167;28;20284;-78
2022/08/01 01:18:22;;;;;;;10.17;4.97;;;15.30;99.90;;;;;;4958141;28;20271;-77
2022/08/01 01:21:07;;;;;;;11.80;5.20;;;15.20;99.90;;;;;;4958265;28;20746;-78
2022/08/01 01:23:46;;;;;;;7.13;5.27;;;15.20;99.90;;;;;;4957716;28;20394;-77
2022/08/01 01:26:44;;;;;;;6.63;5.23;;;15.30;99.90;;;;;;4958201;28;20305;-77
2022/08/01 01:29:19;;;;;;;8.63;5.40;;;15.10;99.90;;;;;;4957823;28;20206;-77
2022/08/01 01:32:04;;;;;;;6.03;5.33;;;15.10;99.90;;;;;;4957674;28;20300;-76
2022/08/01 01:34:42;;;;;;;5.60;5.10;;;15.10;99.90;;;;;;4958309;28;20239;-76
2022/08/01 01:37:14;;;;;;;8.37;5.70;;;15.10;99.90;;;;;;4957603;28;20669;-78
2022/08/01 01:39:42;;;;;;;8.40;5.17;;;15.10;99.90;;;;;;4974968;28;20216;-76
2022/08/01 01:42:22;;;;;;;6.73;5.33;;;15.00;99.90;;;;;;4959179;28;20696;-77
2022/08/01 01:44:51;;;;;;;13.83;6.10;;;15.00;99.90;;;;;;4957761;28;20591;-77
2022/08/01 01:47:18;;;;;;;7.47;5.07;;;15.00;99.90;;;;;;4957335;28;20194;-76
2022/08/01 01:49:47;;;;;;;7.87;5.17;;;15.10;99.90;;;;;;4957703;28;20207;-77
2022/08/01 01:52:17;;;;;;;7.97;5.00;;;15.00;99.90;;;;;;4956948;28;20288;-77
2022/08/01 01:54:49;;;;;;;6.53;4.90;;;15.00;99.90;;;;;;4957471;28;20209;-76
2022/08/01 01:57:17;;;;;;;8.63;4.80;;;15.00;99.90;;;;;;4974595;28;20281;-77
2022/08/01 01:59:47;;;;;;;8.50;4.90;;;15.00;99.90;;;;;;4957357;28;20299;-80
2022/08/01 02:02:15;;;;;;;9.97;5.13;;;15.00;99.90;;;;;;4957632;28;20334;-76
2022/08/01 02:04:46;;;;;;;9.43;5.27;;;14.90;99.90;;;;;;4957345;28;20225;-75
2022/08/01 02:07:19;;;;;;;8.17;5.50;;;14.90;99.90;;;;;;4957210;28;20317;-76
2022/08/01 02:09:47;;;;;;;10.17;5.53;;;14.90;99.90;;;;;;4956942;28;20300;-76
2022/08/01 02:12:18;;;;;;;9.80;5.53;;;14.80;99.90;;;;;;4956720;28;20563;-79
2022/08/01 02:14:48;;;;;;;10.10;5.30;;;14.80;99.90;;;;;;4974602;28;20197;-78
2022/08/01 02:17:17;;;;;;;7.67;5.40;;;14.70;99.90;;;;;;4956891;28;20322;-76
2022/08/01 02:19:45;;;;;;;10.47;5.43;;;14.80;99.90;;;;;;4956993;28;20209;-75
2022/08/01 02:22:22;;;;;;;9.83;5.23;;;14.70;99.90;;;;;;4956870;28;20220;-75
2022/08/01 02:25:00;;;;;;;7.47;4.93;;;14.60;99.90;;;;;;4957125;28;20227;-76
2022/08/01 02:27:42;;;;;;;7.70;5.27;;;14.60;99.90;;;;;;4956356;28;20205;-78
2022/08/01 02:30:12;;;;;;;8.60;5.20;;;14.60;99.90;;;;;;4956944;28;20220;-76
2022/08/01 02:32:44;;;;;;;6.43;5.00;;;14.60;99.90;;;;;;4956806;28;20290;-76
2022/08/01 02:35:18;;;;;;;8.83;4.63;;;14.60;99.90;;;;;;4957363;28;20244;-76
2022/08/01 02:37:47;;;;;;;13.33;5.40;;;14.60;99.90;;;;;;4957134;28;20653;-77
2022/08/01 02:40:17;;;;;;;7.80;4.70;;;14.60;99.90;;;;;;4956615;28;20271;-77
2022/08/01 02:42:52;;;;;;;9.43;5.03;;;14.50;99.90;;;;;;4974488;28;20203;-79
2022/08/01 02:45:23;;;;;;;9.67;5.53;;;14.40;99.90;;;;;;4956900;28;20229;-78
2022/08/01 02:47:51;;;;;;;7.83;4.80;;;14.40;99.90;;;;;;4956906;28;20286;-77
2022/08/01 02:50:20;;;;;;;10.13;5.40;;;14.40;99.90;;;;;;4957038;28;20214;-77
2022/08/01 02:52:50;;;;;;;9.63;5.67;;;14.30;99.90;;;;;;4956907;28;20669;-79
2022/08/01 02:55:19;;;;;;;9.30;5.50;;;14.30;99.90;;;;;;4956694;28;20202;-77
2022/08/01 02:57:49;;;;;;;16.53;6.20;;;14.20;99.90;;;;;;4973975;28;20757;-77
2022/08/01 03:00:18;;;;;;;7.90;6.47;;;14.20;99.90;;;;;;4956745;28;20215;-77
2022/08/01 03:02:54;;;;;;;10.13;5.80;;;14.20;99.90;;;;;;4956640;28;20210;-77
2022/08/01 03:05:22;;;;;;;10.77;6.00;;;14.20;99.90;;;;;;4956655;28;20583;-76
2022/08/01 03:07:51;;;;;;;11.27;6.37;;;14.00;99.90;;;;;;4940418;28;20294;-75
2022/08/01 03:10:19;;;;;;;11.37;6.50;;;14.00;99.90;;;;;;4973654;28;20678;-76
2022/08/01 03:12:48;;;;;;;11.27;7.13;;;14.00;99.90;;;;;;4973671;28;20283;-75
2022/08/01 03:15:16;;;;;;;9.50;6.83;;;14.00;99.90;;;;;;4957039;28;20232;-78
2022/08/01 03:17:47;;;;;;;10.40;6.80;;;14.00;99.90;;;;;;4957022;28;20200;-75
2022/08/01 03:20:16;;;;;;;11.30;7.20;;;14.10;99.90;;;;;;4973702;28;20276;-76
2022/08/01 03:22:45;;;;;;;10.53;6.77;;;13.90;99.90;;;;;;4956354;28;20312;-78
2022/08/01 03:25:15;;;;;;;14.40;7.47;;;13.90;99.90;;;;;;4956280;28;20575;-77
2022/08/01 03:27:54;;;;;;;13.60;7.00;;;14.00;99.90;;;;;;4956673;28;20228;-76
2022/08/01 03:30:24;;;;;;;11.37;7.20;;;14.00;99.90;;;;;;4956341;28;20209;-81
2022/08/01 03:32:51;;;;;;;11.37;6.70;;;13.80;99.90;;;;;;4973364;28;20272;-76
2022/08/01 03:35:20;;;;;;;9.50;7.30;;;13.90;99.90;;;;;;4956348;28;20292;-76
2022/08/01 03:37:53;;;;;;;13.97;7.33;;;13.80;99.90;;;;;;4957419;28;20288;-80
2022/08/01 03:40:48;;;;;;;12.57;7.17;;;13.90;99.90;;;;;;4959553;28;20194;-79
2022/08/01 03:43:27;;;;;;;12.27;7.17;;;13.90;99.90;;;;;;4959668;28;20247;-78
2022/08/01 03:45:58;;;;;;;13.03;7.57;;;13.90;99.90;;;;;;4959642;28;20256;-78
2022/08/01 03:48:29;;;;;;;9.97;7.13;;;13.90;99.90;;;;;;4959733;28;20208;-78
2022/08/01 03:50:59;;;;;;;13.97;7.83;;;14.00;99.90;;;;;;4959638;28;20217;-80
2022/08/01 03:53:30;;;;;;;10.77;7.00;;;14.10;99.90;;;;;;4976642;28;20197;-77
2022/08/01 03:56:00;;;;;;;15.00;7.60;;;14.00;99.90;;;;;;4959469;28;20206;-75
2022/08/01 03:58:31;;;;;;;10.67;8.30;;;14.00;99.90;;;;;;4976720;28;20260;-77
2022/08/01 04:00:58;;;;;;;17.03;8.77;;;14.00;99.90;;;;;;4959370;28;20292;-76
2022/08/01 04:03:26;;;;;;;12.13;8.50;;;14.10;99.90;;;;;;4976643;28;20197;-78
2022/08/01 04:05:53;;;;;;;11.37;9.23;;;14.10;99.90;;;;;;4959330;28;20309;-77
2022/08/01 04:08:20;;;;;;;14.07;9.23;;;14.10;99.90;;;;;;4976459;28;20198;-78
2022/08/01 04:10:55;;;;;;;14.63;8.90;;;14.20;99.90;;;;;;4976372;28;20227;-78
2022/08/01 04:13:22;;;;;;;14.17;8.80;;;14.30;99.90;;;;;;4976511;28;20537;-76
2022/08/01 04:15:49;;;;;;;15.57;9.50;;;14.20;99.90;;;;;;4959538;28;20209;-77
2022/08/01 04:18:16;;;;;;;15.17;9.73;;;14.30;99.90;;;;;;4976528;28;20193;-78
2022/08/01 04:20:43;;;;;;;13.53;9.37;;;14.30;99.90;;;;;;4959286;28;20211;-79
2022/08/01 04:23:10;;;;;;;13.60;10.20;;;14.30;99.90;;;;;;4959041;28;20245;-77
2022/08/01 04:25:39;;;;;;;14.53;10.40;;;14.30;99.90;;;;;;4976173;28;20643;-76
2022/08/01 04:28:10;;;;;;;12.43;9.00;;;14.40;99.90;;;;;;4959041;28;20301;-77
2022/08/01 04:30:39;;;;;;;18.50;10.03;;;14.40;99.90;;;;;;4976489;28;20205;-76
2022/08/01 04:33:09;;;;;;;13.80;9.27;;;14.40;99.90;;;;;;4976364;28;20631;-76
2022/08/01 04:35:39;;;;;;;11.93;9.87;;;14.40;99.90;;;;;;4959107;28;20281;-76
2022/08/01 04:38:29;;;;;;;13.70;9.20;;;14.50;99.90;;;;;;4958518;28;20206;-79
2022/08/01 04:40:57;;;;;;;13.63;9.47;;;14.60;99.90;;;;;;4958676;28;20629;-77
2022/08/01 04:43:24;;;;;;;15.47;9.20;;;14.60;99.90;;;;;;4958626;28;20200;-78
2022/08/01 04:45:52;;;;;;;12.63;8.47;;;14.80;99.90;;;;;;4958889;28;20231;-77
2022/08/01 04:48:20;;;;;;;14.67;8.47;;;14.80;99.90;;;;;;4958634;28;20237;-78
2022/08/01 04:50:49;;;;;;;14.87;8.87;;;14.80;99.90;;;;;;4957883;28;20209;-79
2022/08/01 04:53:19;;;;;;;13.33;8.33;;;14.90;99.90;;;;;;4975704;28;20677;-77
2022/08/01 04:55:45;;;;;;;12.03;8.20;;;14.80;99.90;;;;;;4975958;28;20198;-78
2022/08/01 04:58:15;;;;;;;13.47;8.60;;;14.80;99.90;;;;;;4958577;28;20252;-76
2022/08/01 05:00:48;;;;;;;11.60;8.60;;;14.80;99.90;;;;;;4958240;28;20207;-75
2022/08/01 05:03:15;;;;;;;11.33;7.90;;;14.90;99.90;;;;;;4958047;28;20276;-76
2022/08/01 05:05:42;;;;;;;12.93;7.70;;;15.00;99.90;;;;;;4958149;28;20229;-76
2022/08/01 05:08:09;;;;;;;9.87;8.13;;;14.90;99.90;;;;;;4957500;28;20674;-76
2022/08/01 05:10:36;;;;;;;12.13;8.07;;;15.00;99.90;;;;;;4957826;28;20209;-77
2022/08/01 05:13:03;;;;;;;10.03;7.13;;;15.10;99.90;;;;;;4957841;28;20182;-76
2022/08/01 05:15:30;;;;;;;10.50;7.60;;;15.10;99.90;;;;;;4975559;28;20503;-77
2022/08/01 05:17:57;;;;;;;10.93;8.00;;;15.00;99.90;;;;;;4957970;28;20608;-76
2022/08/01 05:20:24;;;;;;;12.97;8.40;;;15.00;99.90;;;;;;4957979;28;20563;-76
2022/08/01 05:22:51;;;;;;;12.87;8.67;;;14.80;99.90;;;;;;4958042;28;20289;-77
2022/08/01 05:25:18;;;;;;;14.80;8.33;;;14.90;99.90;;;;;;4957714;28;20332;-78
2022/08/01 05:27:47;;;;;;;13.23;8.53;;;14.80;99.90;;;;;;4975235;28;20248;-77
2022/08/01 05:30:17;;;;;;;11.00;8.30;;;14.80;99.90;;;;;;4958846;28;20209;-77
2022/08/01 05:32:44;;;;;;;12.03;8.87;;;14.70;99.90;;;;;;4975882;28;20201;-75
2022/08/01 05:35:11;;;;;;;13.27;8.77;;;14.80;99.90;;;;;;4958523;28;20211;-76
2022/08/01 05:37:38;;;;;;;11.30;8.37;;;14.80;99.90;;;;;;4975262;28;20196;-77
2022/08/01 05:40:05;;;;;;;12.30;8.90;;;14.80;99.90;;;;;;4957315;28;20205;-76
2022/08/01 05:42:32;;;;;;;13.37;9.20;;;14.70;99.90;;;;;;4957300;28;20204;-74
2022/08/01 05:44:59;;;;;;;12.90;8.73;;;14.80;99.90;;;;;;4957653;28;20231;-75
2022/08/01 05:47:26;;;;;;;14.23;9.20;;;14.90;99.90;;;;;;4957314;28;20213;-76
2022/08/01 05:49:53;;;;;;;16.10;11.73;;;14.90;99.90;;;;;;4957904;28;20510;-78
2022/08/01 05:52:20;;;;;;;14.73;12.53;;;15.00;99.90;;;;;;4957384;28;20582;-78
2022/08/01 05:54:47;;;;;;;18.57;10.97;;;15.10;99.90;;;;;;4957658;28;20221;-81
2022/08/01 05:57:14;;;;;;;16.40;13.17;;;15.10;99.90;;;;;;4957354;28;20197;-77
2022/08/01 05:59:41;;;;;;;16.77;12.97;;;15.20;99.90;;;;;;4957377;28;20597;-76
2022/08/01 06:02:07;;;;;;;15.93;13.63;;;15.20;99.90;;;;;;4956943;28;20693;-77
2022/08/01 06:04:35;;;;;;;15.60;10.80;;;15.20;99.90;;;;;;4974707;28;20197;-77
2022/08/01 06:07:03;;;;;;;12.33;9.30;;;15.30;99.90;;;;;;4957132;28;20260;-76
2022/08/01 06:09:30;;;;;;;13.37;9.67;;;15.40;99.90;;;;;;4957130;28;20197;-77
2022/08/01 06:11:57;;;;;;;16.13;9.23;;;15.40;99.90;;;;;;4957075;28;20198;-77
2022/08/01 06:14:31;;;;;;;11.00;8.80;;;15.50;99.90;;;;;;4957114;28;20194;-75
2022/08/01 06:16:58;;;;;;;12.07;8.00;;;15.50;99.90;;;;;;4957549;28;20190;-77
2022/08/01 06:19:26;;;;;;;10.77;7.80;;;15.50;99.90;;;;;;4957216;28;20784;-76
2022/08/01 06:21:53;;;;;;;13.43;9.37;;;15.60;99.90;;;;;;4957242;28;20231;-78
2022/08/01 06:24:22;;;;;;;12.23;8.57;;;15.70;99.90;;;;;;4957330;28;20217;-76
2022/08/01 06:26:49;;;;;;;11.67;7.10;;;15.80;99.90;;;;;;4957024;28;20737;-77
2022/08/01 06:29:16;;;;;;;9.77;6.63;;;15.90;99.90;;;;;;4956919;28;20208;-77
2022/08/01 06:31:44;;;;;;;10.23;7.60;;;16.00;99.90;;;;;;4974224;28;20591;-76
2022/08/01 06:34:11;;;;;;;8.47;6.67;;;16.10;99.90;;;;;;4957251;28;20200;-76
2022/08/01 06:36:38;;;;;;;9.43;6.97;;;16.10;99.90;;;;;;4957097;28;20280;-77
2022/08/01 06:39:05;;;;;;;9.67;7.03;;;16.10;99.90;;;;;;4973853;28;20201;-76
2022/08/01 06:41:32;;;;;;;9.17;6.80;;;16.20;99.90;;;;;;4973982;28;20240;-76
2022/08/01 06:44:02;;;;;;;11.77;6.30;;;16.40;99.90;;;;;;4956902;28;20201;-76
2022/08/01 06:46:31;;;;;;;7.10;4.80;;;16.50;99.90;;;;;;4956685;28;20225;-75
2022/08/01 06:49:00;;;;;;;7.60;5.10;;;16.70;99.90;;;;;;4957125;28;20197;-76
2022/08/01 06:51:27;;;;;;;8.47;5.07;;;16.90;99.90;;;;;;4957015;28;20205;-79
2022/08/01 06:53:54;;;;;;;7.40;3.87;;;16.90;99.90;;;;;;4956608;28;20296;-77
2022/08/01 06:56:21;;;;;;;6.23;4.20;;;16.90;99.90;;;;;;4974106;28;20547;-76
2022/08/01 06:58:50;;;;;;;6.53;4.57;;;17.00;99.90;;;;;;4940945;28;20621;-77
2022/08/01 07:01:17;;;;;;;8.27;4.50;;;17.20;99.90;;;;;;4956798;28;20201;-76
2022/08/01 07:03:44;;;;;;;8.47;4.50;;;17.30;99.90;;;;;;4956516;28;20229;-77
2022/08/01 07:06:22;;;;;;;5.20;3.87;;;17.40;99.90;;;;;;4956569;28;20217;-75
2022/08/01 07:08:49;;;;;;;5.23;3.60;;;17.40;99.90;;;;;;4973713;28;20504;-76
2022/08/01 07:11:16;;;;;;;4.97;3.73;;;17.40;99.90;;;;;;4956417;28;20300;-77
2022/08/01 07:13:45;;;;;;;5.03;3.80;;;17.30;99.90;;;;;;4959036;28;20206;-76
2022/08/01 07:16:13;;;;;;;9.03;3.70;;;17.60;99.90;;;;;;4960451;28;20202;-76
2022/08/01 07:18:41;;;;;;;5.07;3.20;;;17.60;99.90;;;;;;4960273;28;20208;-75
2022/08/01 07:21:08;;;;;;;6.53;3.13;;;17.90;99.90;;;;;;4960208;28;20688;-77
2022/08/01 07:23:55;;;;;;;5.53;3.03;;;17.80;99.90;;;;;;4977285;28;20194;-76
2022/08/01 07:26:22;;;;;;;6.27;2.67;;;17.80;99.90;;;;;;4959998;28;20232;-73
2022/08/01 07:28:49;;;;;;;4.30;3.03;;;17.80;99.90;;;;;;4960000;28;20198;-76
2022/08/01 07:31:16;;;;;;;4.90;2.73;;;17.90;99.90;;;;;;4977427;28;20301;-74
2022/08/01 07:33:43;;;;;;;3.50;2.77;;;18.00;99.90;;;;;;4959845;28;20289;-73
2022/08/01 07:36:14;;;;;;;5.40;2.87;;;18.10;99.90;;;;;;4960672;28;20288;-76
2022/08/01 07:38:41;;;;;;;9.07;2.87;;;18.20;99.90;;;;;;4944852;28;20205;-78
2022/08/01 07:41:09;;;;;;;7.33;3.00;;;18.20;99.90;;;;;;4960792;28;20198;-76
2022/08/01 07:43:36;;;;;;;7.73;2.93;;;18.20;99.90;;;;;;4977911;28;20228;-77
2022/08/01 07:46:03;;;;;;;4.70;2.60;;;18.30;99.90;;;;;;4960687;28;20272;-73
2022/08/01 07:48:33;;;;;;;3.97;2.33;;;18.50;99.90;;;;;;4960357;28;20198;-74
2022/08/01 07:51:00;;;;;;;6.07;2.23;;;18.50;99.90;;;;;;4960388;28;20229;-86
2022/08/01 07:53:28;;;;;;;5.23;2.10;;;18.50;99.90;;;;;;4959461;28;20205;-75
2022/08/01 07:55:55;;;;;;;3.33;2.20;;;18.70;99.90;;;;;;4976743;28;20276;-76
2022/08/01 07:58:22;;;;;;;4.27;2.40;;;18.70;99.90;;;;;;4976639;28;20275;-76
2022/08/01 08:00:49;;;;;;;6.07;2.60;;;18.80;99.90;;;;;;4959414;28;20194;-78
2022/08/01 08:03:16;;;;;;;4.47;2.23;;;18.90;99.90;;;;;;4959594;28;20300;-75
2022/08/01 08:05:43;;;;;;;4.27;2.20;;;19.00;99.90;;;;;;4960313;28;20221;-75
2022/08/01 08:08:26;;;;;;;3.90;1.90;;;19.10;99.90;;;;;;4976468;28;20601;-73
2022/08/01 08:10:53;;;;;;;2.50;1.70;;;19.20;99.90;;;;;;4959242;28;20645;-74
2022/08/01 08:13:20;;;;;;;4.17;2.07;;;19.30;99.90;;;;;;4976422;28;20221;-74
2022/08/01 08:15:48;;;;;;;6.83;2.00;;;19.50;99.90;;;;;;4959138;28;20221;-75
2022/08/01 08:18:15;;;;;;;3.00;1.90;;;19.70;99.90;;;;;;4976727;28;20194;-75
2022/08/01 08:20:42;;;;;;;2.83;2.00;;;19.70;99.90;;;;;;4958968;28;20239;-74
2022/08/01 08:26:09;;;;;;;3.87;1.70;;;21.50;99.90;;;;;;4958802;28;20240;-75
2022/08/01 08:28:36;;;;;;;4.03;1.87;;;22.40;99.90;;;;;;4959593;28;20666;-74
2022/08/01 08:31:07;;;;;;;3.72;1.80;;;23.00;99.90;;;;;;4959151;28;20678;-73
2022/08/01 08:33:51;;;;;;;3.42;2.00;;;23.30;99.90;;;;;;4959034;28;20197;-73
2022/08/01 08:36:18;;;;;;;4.85;2.20;;;22.70;99.90;;;;;;4959157;28;20205;-75
2022/08/01 08:38:46;;;;;;;3.58;1.90;;;23.10;99.90;;;;;;4959111;28;20578;-75
2022/08/01 08:41:14;;;;;;;3.13;1.92;;;23.60;99.90;;;;;;4958577;28;20212;-73
2022/08/01 08:43:47;;;;;;;2.90;1.70;;;24.20;99.90;;;;;;4958401;28;20248;-76
2022/08/01 08:46:14;;;;;;;4.13;1.90;;;24.70;99.90;;;;;;4975829;28;20237;-74
2022/08/01 08:48:42;;;;;;;1.83;1.40;;;24.30;99.90;;;;;;4958434;28;20215;-75
2022/08/01 08:51:11;;;;;;;4.28;1.67;;;24.10;99.90;;;;;;4958555;28;20198;-75
2022/08/01 08:53:44;;;;;;;1.70;1.60;;;24.60;99.90;;;;;;4958321;28;20208;-75
2022/08/01 08:56:13;;;;;;;5.47;2.28;;;24.90;99.90;;;;;;4958265;28;20288;-75
2022/08/01 08:58:43;;;;;;;4.47;1.77;;;24.70;99.90;;;;;;4958047;28;20237;-75
2022/08/01 09:01:10;;;;;;;7.05;2.20;;;25.30;99.90;;;;;;4958195;28;20264;-77
2022/08/01 09:03:37;;;;;;;3.22;1.75;;;25.80;99.90;;;;;;4958552;28;20274;-75
2022/08/01 09:06:04;;;;;;;7.25;2.10;;;25.60;99.90;;;;;;4958189;28;20252;-75
2022/08/01 09:08:32;;;;;;;4.65;1.80;;;25.40;99.90;;;;;;4975575;28;20236;-75
2022/08/01 09:10:59;;;;;;;2.95;1.75;;;25.00;99.90;;;;;;4957840;28;20209;-75
2022/08/01 09:13:26;;;;;;;4.22;2.20;;;25.10;99.90;;;;;;4957916;28;20567;-76
2022/08/01 09:15:55;;;;;;;3.42;2.00;;;25.40;99.90;;;;;;4958310;28;20205;-76
2022/08/01 09:18:32;;;;;;;2.58;1.90;;;25.90;99.90;;;;;;4975699;28;20197;-76
2022/08/01 09:21:11;;;;;;;4.03;1.70;;;26.10;99.90;;;;;;4957911;28;20300;-75
2022/08/01 09:23:42;;;;;;;2.35;1.90;;;25.20;99.90;;;;;;4957599;28;20321;-75
2022/08/01 09:26:34;;;;;;;5.53;2.08;;;25.10;99.90;;;;;;4957595;28;20633;-75
2022/08/01 09:29:05;;;;;;;4.80;1.95;;;25.70;99.90;;;;;;4957727;28;20296;-75
2022/08/01 09:31:43;;;;;;;2.65;1.75;;;26.00;99.90;;;;;;4957937;28;20197;-74
2022/08/01 09:34:15;;;;;;;4.90;2.13;;;25.40;99.90;;;;;;4957758;28;20193;-72
2022/08/01 09:36:55;;;;;;;3.78;2.30;;;25.00;99.90;;;;;;4974805;28;20193;-71
2022/08/01 09:39:36;;;;;;;2.58;1.90;;;25.00;99.90;;;;;;4974856;28;20240;-72
2022/08/01 09:42:26;;;;;;;5.45;2.00;;;25.10;99.90;;;;;;4957598;28;20205;-73
2022/08/01 09:44:55;;;;;;;3.22;2.05;;;25.50;99.90;;;;;;4862034;29;20204;-75
2022/08/01 09:47:36;;;;;;;2.78;1.73;;;25.80;99.90;;;;;;4877887;29;20236;-76
2022/08/01 09:50:05;;;;;;;3.17;1.88;;;26.00;99.90;;;;;;4877732;29;20205;-73
2022/08/01 09:52:37;;;;;;;3.92;1.92;;;26.00;99.90;;;;;;4877614;29;20391;-75
2022/08/01 09:55:08;;;;;;;5.38;2.10;;;26.30;99.90;;;;;;4862252;29;20433;-72
2022/08/01 09:57:35;;;;;;;3.53;2.10;;;26.40;99.90;;;;;;4861933;29;20733;-75
2022/08/01 10:00:04;;;;;;;2.95;1.80;;;26.60;99.90;;;;;;4863023;29;20776;-74
2022/08/01 10:02:37;;;;;;;2.50;1.92;;;27.10;99.90;;;;;;4862507;29;20605;-79
2022/08/01 10:05:06;;;;;;;3.35;2.00;;;26.70;99.90;;;;;;4862190;29;20685;-74
2022/08/01 10:07:55;;;;;;;2.60;1.95;;;25.60;99.90;;;;;;4862557;29;20268;-75
2022/08/01 10:10:24;;;;;;;2.97;2.20;;;26.00;99.90;;;;;;4861977;29;20201;-74
2022/08/01 10:12:57;;;;;;;5.10;2.15;;;26.30;99.90;;;;;;4877356;29;20211;-76
2022/08/01 10:15:27;;;;;;;4.32;2.22;;;26.80;99.90;;;;;;4877928;29;20265;-77
2022/08/01 10:18:06;;;;;;;4.40;1.90;;;26.40;99.90;;;;;;4862728;29;20758;-81
2022/08/01 10:20:53;;;;;;;2.50;1.80;;;26.50;99.90;;;;;;4866840;28;20701;-79
2022/08/01 10:23:30;;;;;;;7.35;2.05;;;27.30;99.90;;;;;;4957641;28;20217;-79
2022/08/01 10:26:09;;;;;;;6.93;2.10;;;27.60;99.90;;;;;;4956857;28;20211;-78
2022/08/01 10:28:38;;;;;;;3.15;1.70;;;28.00;99.90;;;;;;4957152;28;20229;-77
2022/08/01 10:31:17;;;;;;;3.88;1.83;;;28.60;99.90;;;;;;4974266;28;20288;-76
2022/08/01 10:33:44;;;;;;;3.95;1.98;;;29.10;99.90;;;;;;4956858;28;20296;-78
2022/08/01 10:36:22;;;;;;;4.18;1.90;;;28.80;99.90;;;;;;4958049;28;20192;-80
2022/08/01 10:38:53;;;;;;;2.95;2.03;;;29.10;99.90;;;;;;4957767;28;20193;-76
2022/08/01 10:41:20;;;;;;;6.78;2.25;;;29.60;99.90;;;;;;4956461;28;20209;-76
2022/08/01 10:43:47;;;;;;;4.88;1.98;;;29.50;99.90;;;;;;4974254;28;20228;-75
2022/08/01 10:46:18;;;;;;;3.85;2.33;;;29.50;99.90;;;;;;4957249;28;20209;-77
2022/08/01 10:48:56;;;;;;;3.45;2.00;;;30.00;98.90;;;;;;4960348;28;20260;-76
2022/08/01 10:51:28;;;;;;;4.55;1.98;;;30.60;99.60;;;;;;4960975;28;20244;-79
2022/08/01 10:54:16;;;;;;;3.70;2.00;;;29.40;99.20;;;;;;4978471;28;20582;-75
2022/08/01 10:56:48;;;;;;;2.40;1.83;;;28.70;98.20;;;;;;4960558;28;20202;-76
2022/08/01 10:59:21;;;;;;;2.75;2.15;;;29.10;98.40;;;;;;4960818;28;20299;-75
2022/08/01 11:02:04;;;;;;;4.22;2.10;;;29.30;98.70;;;;;;4960550;28;20209;-77
2022/08/01 11:04:53;;;;;;;5.75;2.35;;;29.60;99.50;;;;;;4960623;28;20235;-76
2022/08/01 11:07:39;;;;;;;2.90;1.92;;;29.80;99.20;;;;;;4960326;28;20324;-77
2022/08/01 11:10:33;;;;;;;3.60;2.08;;;30.10;98.40;;;;;;4960039;28;20201;-76
2022/08/01 11:13:03;;;;;;;3.50;2.10;;;30.10;96.40;;;;;;4960966;28;20599;-75
2022/08/01 11:15:30;;;;;;;3.78;2.22;;;29.30;95.60;;;;;;4977819;28;20182;-75
2022/08/01 11:18:00;;;;;;;2.75;2.35;;;28.00;97.40;;;;;;4960783;28;20209;-82
2022/08/01 11:20:35;;;;;;;3.17;1.90;;;27.70;99.70;;;;;;4960590;28;20705;-75
2022/08/01 11:23:10;;;;;;;6.18;2.05;;;28.40;99.30;;;;;;4960304;28;20233;-78
2022/08/01 11:25:37;;;;;;;3.78;2.08;;;29.30;98.60;;;;;;4959622;28;20201;-74
2022/08/01 11:28:29;;;;;;;4.43;2.10;;;29.70;97.30;;;;;;4960232;28;20220;-78
2022/08/01 11:31:07;;;;;;;3.15;2.15;;;30.10;96.70;;;;;;4959914;28;20212;-78
2022/08/01 11:33:42;;;;;;;5.18;2.35;;;29.30;95.30;;;;;;4959799;28;20193;-75
2022/08/01 11:36:12;;;;;;;3.88;1.80;;;30.00;95.50;;;;;;4960211;28;20201;-73
2022/08/01 11:38:42;;;;;;;2.95;2.10;;;30.70;95.30;;;;;;4944558;28;20205;-78
2022/08/01 11:41:14;;;;;;;3.35;2.20;;;31.00;93.50;;;;;;4959433;28;20208;-75
2022/08/01 11:44:08;;;;;;;5.10;1.98;;;31.30;92.90;;;;;;4976907;28;20205;-76
2022/08/01 11:46:56;;;;;;;4.75;2.13;;;31.90;92.00;;;;;;4959691;28;20218;-75
2022/08/01 11:49:36;;;;;;;2.55;1.80;;;32.10;90.60;;;;;;4943792;28;20237;-80
2022/08/01 11:52:23;;;;;;;2.60;1.90;;;32.10;88.30;;;;;;4959335;28;20647;-79
2022/08/01 11:54:53;;;;;;;2.85;1.88;;;31.80;86.90;;;;;;4961070;28;20225;-76
2022/08/01 11:57:25;;;;;;;2.88;1.90;;;31.40;85.80;;;;;;4959244;28;20236;-78
2022/08/01 12:00:05;;;;;;;2.80;2.10;;;30.80;87.30;;;;;;4959162;28;20706;-84
2022/08/01 12:02:35;;;;;;;2.72;1.98;;;30.80;84.80;;;;;;4959209;28;20208;-76
2022/08/01 12:05:06;;;;;;;4.45;2.10;;;31.10;87.60;;;;;;4943491;28;20185;-77
2022/08/01 12:07:36;;;;;;;2.47;2.08;;;31.90;85.60;;;;;;4959229;28;20213;-72
2022/08/01 12:10:07;;;;;;;3.95;2.25;;;30.80;85.60;;;;;;4943477;28;20194;-78
2022/08/01 12:12:35;;;;;;;4.38;2.30;;;31.00;88.90;;;;;;4959004;28;20205;-76
2022/08/01 12:15:06;;;;;;;4.88;2.78;;;31.70;86.90;;;;;;4959372;28;20257;-76
2022/08/01 12:17:45;;;;;;;3.67;2.85;;;31.50;86.70;;;;;;4976581;28;20193;-73
2022/08/01 12:20:27;;;;;;;4.18;2.60;;;31.80;83.00;;;;;;4945177;28;20198;-75
2022/08/01 12:22:58;;;;;;;4.55;2.97;;;31.30;81.70;;;;;;4958940;28;20222;-75
2022/08/01 12:25:25;;;;;;;6.88;3.38;;;30.90;83.80;;;;;;4959183;28;20194;-76
2022/08/01 12:27:52;;;;;;;3.72;3.10;;;31.60;83.10;;;;;;4959233;28;20221;-76
2022/08/01 12:30:24;;;;;;;3.55;3.25;;;31.50;80.40;;;;;;4976228;28;20189;-77
2022/08/01 12:32:53;;;;;;;5.85;3.47;;;31.70;80.30;;;;;;4958615;28;20244;-75
2022/08/01 12:35:22;;;;;;;4.30;3.90;;;30.60;85.80;;;;;;4958894;28;20300;-80
2022/08/01 12:38:02;;;;;;;4.85;3.70;;;31.50;82.30;;;;;;4958711;28;20293;-80
2022/08/01 12:40:35;;;;;;;4.70;3.30;;;32.50;81.20;;;;;;4958349;28;20193;-73
2022/08/01 12:43:07;;;;;;;7.82;3.63;;;33.40;76.70;;;;;;4958603;28;20213;-77
2022/08/01 12:45:46;;;;;;;7.38;2.97;;;33.60;76.60;;;;;;4958498;28;20225;-69
2022/08/01 12:48:24;;;;;;;3.83;3.40;;;34.00;74.60;;;;;;4975912;28;20225;-72
2022/08/01 12:50:52;;;;;;;6.72;3.75;;;33.60;77.20;;;;;;4958504;28;20205;-71
2022/08/01 12:53:21;;;;;;;4.75;3.25;;;33.40;84.00;;;;;;4958378;28;20202;-73
2022/08/01 12:55:54;;;;;;;5.38;3.85;;;33.70;86.70;;;;;;4958426;28;20399;-73
2022/08/01 12:58:34;;;;;;;3.95;3.33;;;33.00;81.00;;;;;;4973964;28;20603;-74
2022/08/01 13:01:10;;;;;;;5.88;3.40;;;32.60;89.00;;;;;;4977710;28;20189;-74
2022/08/01 13:03:38;;;;;;;4.95;3.33;;;31.60;84.20;;;;;;4977419;28;20200;-72
2022/08/01 13:06:15;;;;;;;5.75;3.28;;;31.30;85.40;;;;;;4995155;28;20549;-72